EDNY Airport Information

Runway Information
Runway 06 Length 7729 ft width 148 ft
Elevation 1334 ft Threshold 885 ft Heading 60
Runway 24 Length 7729 ft Width 148 ft
Elevation 1367 ft Threshold 675 ft Heading 240
Airport Frequencies
Type APP Name ZURICH ARR Frequency 119.925 MHZ
Type ATIS Name ATIS Frequency 129.6 MHZ
Type INFO Name INFO Frequency 122.5 MHZ
Type RDO Name MUNCHEN IN Frequency 126.95 MHZ
Type TWR Name TWR Frequency 120.075 MHZ
Airport Navaids
Type NDB Name Friedrichshafen Frequency 473 KHZ
Type DME Name Friedrichshafen Frequency 112600 KHZ
Airport Weather Information & NOTAM
ADDS - METARS form results

(1707 UTC 29 September 2022)
Data provider http://aviationweather.gov/metar/data/
 
METAR text: EDNY 291650Z VRB01KT 9999 FEW053 10/09 Q1004
Conditions at: EDNY (FRIEDRICHSHAFEN , DE) observed 1650 UTC 29 September 2022
Temperature: 10.0°C (50°F)
Dewpoint: 9.0°C (48°F) [RH = 93%]
Pressure (altimeter): 29.65 inches Hg (1004.0 mb)
Winds: variable direction winds at 1 MPH (1 knots; 0.5 m/s)
Visibility: 6 or more miles (10+ km)
Ceiling: at least 12,000 feet AGL
Clouds: few clouds at 5300 feet AGL
Weather: no significant weather observed at this time

METAR text: EDNY 291620Z VRB02KT 9999 BKN055 11/08 Q1003
Conditions at: EDNY (FRIEDRICHSHAFEN , DE) observed 1620 UTC 29 September 2022
Temperature: 11.0°C (52°F)
Dewpoint: 8.0°C (46°F) [RH = 82%]
Pressure (altimeter): 29.62 inches Hg (1003.0 mb)
Winds: variable direction winds at 2 MPH (2 knots; 1.0 m/s)
Visibility: 6 or more miles (10+ km)
Ceiling: 5500 feet AGL
Clouds: broken clouds at 5500 feet AGL
Weather: no significant weather observed at this time

Forecast for: EDNY (FRIEDRICHSHAFEN , DE)
Text: TAF EDNY 291100Z 2912/3012 VRB03KT 9999 BKN050
Forecast period: 1200 UTC 29 September 2022 to 1200 UTC 30 September 2022
Forecast type: FROM: standard forecast or significant change
Winds: variable direction winds at 3 MPH (3 knots; 1.5 m/s)
Visibility: 6 or more miles (10+ km)
Ceiling: 5000 feet AGL
Clouds: broken clouds at 5000 feet AGL
Weather: no significant weather forecast for this period
Text: TEMPO 2914/2920 RA
Forecast period: 1400 to 2000 UTC 29 September 2022
Forecast type: TEMPORARY: The following changes expected for less than half the time period
Visibility: missing
Ceiling: unknown
Clouds: missing
Weather: RA  (moderate rain)
Text: TEMPO 3002/3006 4000 BR BKN006
Forecast period: 0200 to 0600 UTC 30 September 2022
Forecast type: TEMPORARY: The following changes expected for less than half the time period
Visibility: 2.49 miles (4.01 km)
Ceiling: 600 feet AGL
Clouds: broken clouds at 600 feet AGL
Weather: BR  (mist)